createdAt,value
2024-03-22T00:02:40.413Z,57.38
2024-03-22T00:06:04.212Z,58.21
2024-03-22T00:09:27.745Z,59.76
2024-03-22T00:12:51.906Z,68.48
2024-03-22T00:16:15.410Z,67.98
2024-03-22T00:19:38.904Z,61.93
2024-03-22T00:23:02.558Z,56.35
2024-03-22T00:26:26.389Z,54.88
2024-03-22T00:29:50.316Z,55.91
2024-03-22T00:33:13.883Z,57.72
2024-03-22T00:36:37.800Z,59.07
2024-03-22T00:40:01.376Z,60.36
2024-03-22T00:43:24.953Z,67.12
2024-03-22T00:46:48.561Z,69.45
2024-03-22T00:50:12.126Z,62.50
2024-03-22T00:53:35.717Z,55.55
2024-03-22T00:56:59.155Z,53.61
2024-03-22T01:00:22.885Z,54.86
2024-03-22T01:03:46.343Z,56.22
2024-03-22T01:07:10.006Z,57.38
2024-03-22T01:10:35.496Z,58.33
2024-03-22T01:13:59.067Z,60.42
2024-03-22T01:17:22.597Z,60.92
2024-03-22T01:20:46.240Z,67.86
2024-03-22T01:24:09.906Z,72.01
2024-03-22T01:27:33.627Z,64.90
2024-03-22T01:30:57.137Z,59.83
2024-03-22T01:34:20.566Z,53.82
2024-03-22T01:37:44.053Z,54.13
2024-03-22T01:41:08.180Z,56.04
2024-03-22T01:44:34.075Z,57.02
2024-03-22T01:47:57.765Z,58.19
2024-03-22T01:51:21.384Z,59.07
2024-03-22T01:54:44.960Z,61.10
2024-03-22T01:58:08.685Z,69.18
2024-03-22T02:01:32.587Z,71.13
2024-03-22T02:04:56.295Z,63.70
2024-03-22T02:08:19.751Z,59.16
2024-03-22T02:11:44.794Z,53.64
2024-03-22T02:15:09.400Z,53.86
2024-03-22T02:18:32.953Z,56.87
2024-03-22T02:21:56.508Z,57.08
2024-03-22T02:25:20.111Z,57.91
2024-03-22T02:28:43.622Z,60.90
2024-03-22T02:32:07.732Z,67.85
2024-03-22T02:35:31.191Z,70.67
2024-03-22T02:38:54.635Z,63.72
2024-03-22T02:42:18.105Z,59.03
2024-03-22T02:45:41.811Z,54.41
2024-03-22T02:49:05.280Z,55.14
2024-03-22T02:52:28.780Z,57.30
2024-03-22T02:55:52.315Z,59.83
2024-03-22T02:59:15.858Z,66.76
2024-03-22T03:02:39.466Z,65.94
2024-03-22T03:06:04.322Z,60.77
2024-03-22T03:09:28.704Z,55.24
2024-03-22T03:12:52.218Z,55.23
2024-03-22T03:16:15.648Z,57.88
2024-03-22T03:19:39.081Z,58.12
2024-03-22T03:23:03.100Z,65.20
2024-03-22T03:26:26.590Z,68.65
2024-03-22T03:29:50.068Z,62.75
2024-03-22T03:33:13.577Z,56.54
2024-03-22T03:36:37.004Z,55.47
2024-03-22T03:40:00.531Z,57.69
2024-03-22T03:43:24.242Z,61.25
2024-03-22T03:46:47.687Z,67.06
2024-03-22T03:50:11.533Z,66.85
2024-03-22T03:53:35.036Z,63.37
2024-03-22T03:56:58.635Z,60.92
2024-03-22T04:00:22.625Z,56.10
2024-03-22T04:03:46.225Z,55.34
2024-03-22T04:07:09.713Z,56.86
2024-03-22T04:10:33.430Z,57.68
2024-03-22T04:13:56.913Z,59.50
2024-03-22T04:17:20.552Z,63.07
2024-03-22T04:20:44.845Z,71.31
2024-03-22T04:24:09.435Z,67.86
2024-03-22T04:27:32.910Z,63.62
2024-03-22T04:31:07.289Z,60.49
2024-03-22T04:34:30.792Z,54.77
2024-03-22T04:37:54.273Z,54.85
2024-03-22T04:41:17.767Z,56.77
2024-03-22T04:44:41.568Z,57.86
2024-03-22T04:48:06.415Z,60.31
2024-03-22T04:51:30.029Z,66.59
2024-03-22T04:54:53.540Z,70.00
2024-03-22T04:58:18.594Z,65.25
2024-03-22T05:01:42.180Z,61.86
2024-03-22T05:05:06.084Z,59.95
2024-03-22T05:08:29.601Z,55.33
2024-03-22T05:11:53.275Z,54.68
2024-03-22T05:15:16.823Z,56.03
2024-03-22T05:18:40.995Z,57.67
2024-03-22T05:22:04.523Z,58.85
2024-03-22T05:25:29.746Z,60.23
2024-03-22T05:28:53.626Z,68.05
2024-03-22T05:32:17.248Z,69.88
2024-03-22T05:35:40.820Z,65.49
2024-03-22T05:39:04.458Z,61.83
2024-03-22T05:42:30.665Z,57.83
2024-03-22T05:45:55.168Z,54.70
2024-03-22T05:49:18.660Z,56.45
2024-03-22T05:52:42.429Z,57.82
2024-03-22T05:56:06.306Z,59.42
2024-03-22T05:59:29.874Z,60.22
2024-03-22T06:02:53.368Z,67.37
2024-03-22T06:06:17.373Z,68.12
2024-03-22T06:09:46.855Z,64.49
2024-03-22T06:13:10.348Z,62.41
2024-03-22T06:16:33.859Z,59.66
2024-03-22T06:19:57.411Z,55.74
2024-03-22T06:23:21.435Z,56.99
2024-03-22T06:26:46.103Z,59.23
2024-03-22T06:30:10.319Z,62.57
2024-03-22T06:33:34.348Z,69.57
2024-03-22T06:36:58.329Z,66.15
2024-03-22T06:40:21.789Z,61.76
2024-03-22T06:43:45.276Z,59.60
2024-03-22T06:47:08.780Z,55.47
2024-03-22T06:50:32.345Z,56.27
2024-03-22T06:53:55.849Z,58.15
2024-03-22T06:57:19.343Z,60.17
2024-03-22T07:00:42.920Z,67.51
2024-03-22T07:04:06.419Z,67.91
2024-03-22T07:07:30.395Z,63.03
2024-03-22T07:10:54.112Z,60.19
2024-03-22T07:14:17.634Z,56.40
2024-03-22T07:17:41.175Z,55.61
2024-03-22T07:21:05.029Z,56.96
2024-03-22T07:24:28.761Z,59.83
2024-03-22T07:27:52.740Z,60.67
2024-03-22T07:31:16.319Z,67.87
2024-03-22T07:34:39.870Z,69.11
2024-03-22T07:38:03.367Z,63.55
2024-03-22T07:41:28.993Z,60.23
2024-03-22T07:44:53.407Z,55.62
2024-03-22T07:48:17.224Z,55.81
2024-03-22T07:51:40.865Z,57.55
2024-03-22T07:55:04.581Z,59.88
2024-03-22T07:58:28.070Z,66.50
2024-03-22T08:01:51.608Z,67.16
2024-03-22T08:05:15.124Z,62.96
2024-03-22T08:08:38.753Z,60.21
2024-03-22T08:12:02.540Z,56.26
2024-03-22T08:15:27.670Z,55.52
2024-03-22T08:18:52.942Z,57.68
2024-03-22T08:22:16.524Z,60.13
2024-03-22T08:25:40.298Z,66.38
2024-03-22T08:29:03.841Z,65.55
2024-03-22T08:32:27.291Z,61.50
2024-03-22T08:35:50.824Z,57.09
2024-03-22T08:39:14.308Z,57.62
2024-03-22T08:42:38.236Z,60.40
2024-03-22T08:46:01.710Z,66.55
2024-03-22T08:49:25.275Z,65.81
2024-03-22T08:52:48.825Z,61.44
2024-03-22T08:56:12.921Z,59.90
2024-03-22T08:59:36.404Z,56.65
2024-03-22T09:03:00.018Z,57.75
2024-03-22T09:06:23.798Z,59.80
